createdAt,value
2023-03-21T00:00:25.546Z,54.85
2023-03-21T00:01:27.133Z,55.31
2023-03-21T00:02:28.727Z,55.31
2023-03-21T00:03:31.623Z,55.33
2023-03-21T00:04:44.597Z,55.36
2023-03-21T00:05:53.775Z,55.68
2023-03-21T00:06:55.500Z,55.58
2023-03-21T00:07:57.092Z,55.58
2023-03-21T00:08:58.617Z,56.88
2023-03-21T00:10:08.882Z,57.54
2023-03-21T00:11:14.475Z,57.85
2023-03-21T00:12:16.799Z,58.05
2023-03-21T00:13:19.265Z,58.79
2023-03-21T00:14:20.842Z,58.15
2023-03-21T00:15:24.875Z,58.44
2023-03-21T00:16:33.667Z,59.17
2023-03-21T00:17:39.581Z,58.68
2023-03-21T00:18:46.709Z,58.73
2023-03-21T00:19:50.498Z,58.78
2023-03-21T00:21:29.355Z,59.44
2023-03-21T00:22:22.738Z,59.25
2023-03-21T00:23:28.695Z,59.20
2023-03-21T00:24:30.872Z,58.31
2023-03-21T00:25:33.170Z,58.26
2023-03-21T00:26:35.676Z,57.85
2023-03-21T00:28:01.481Z,58.06
2023-03-21T00:28:59.615Z,57.36
2023-03-21T00:30:01.190Z,57.84
2023-03-21T00:31:03.207Z,58.25
2023-03-21T00:32:04.917Z,57.98
2023-03-21T00:33:21.698Z,58.06
2023-03-21T00:34:36.420Z,57.90
2023-03-21T00:36:05.688Z,57.39
2023-03-21T00:37:09.033Z,57.70
2023-03-21T00:38:11.225Z,57.99
2023-03-21T00:39:14.221Z,57.63
2023-03-21T00:40:26.741Z,57.37
2023-03-21T00:41:42.526Z,57.50
2023-03-21T00:42:44.825Z,58.19
2023-03-21T00:43:46.448Z,58.67
2023-03-21T00:44:48.019Z,59.24
2023-03-21T00:45:51.386Z,59.47
2023-03-21T00:47:06.283Z,58.88
2023-03-21T00:48:08.906Z,59.38
2023-03-21T00:49:10.586Z,60.01
2023-03-21T00:50:12.432Z,60.21
2023-03-21T00:51:21.464Z,60.21
2023-03-21T00:52:38.174Z,60.65
2023-03-21T00:53:42.799Z,61.08
2023-03-21T00:54:44.406Z,61.46
2023-03-21T00:55:46.164Z,60.99
2023-03-21T00:56:47.767Z,61.58
2023-03-21T00:57:56.190Z,61.88
2023-03-21T00:59:03.045Z,62.49
2023-03-21T01:00:07.585Z,63.31
2023-03-21T01:01:09.560Z,63.18
2023-03-21T01:02:14.938Z,63.89
2023-03-21T01:03:25.042Z,63.43
2023-03-21T01:04:28.399Z,63.40
2023-03-21T01:05:49.966Z,63.40
2023-03-21T01:06:51.552Z,63.52
2023-03-21T01:07:53.348Z,64.23
2023-03-21T01:08:55.116Z,64.03
2023-03-21T01:09:56.712Z,63.82
2023-03-21T01:11:03.300Z,63.57
2023-03-21T01:12:04.952Z,63.57
2023-03-21T01:13:06.496Z,63.40
2023-03-21T01:14:21.398Z,63.03
2023-03-21T01:15:24.265Z,62.79
2023-03-21T01:16:25.930Z,61.32
2023-03-21T01:17:27.579Z,62.17
2023-03-21T01:18:30.028Z,62.24
2023-03-21T01:19:48.357Z,62.29
2023-03-21T01:20:53.382Z,62.00
2023-03-21T01:21:55.967Z,61.89
2023-03-21T01:22:57.540Z,61.93
2023-03-21T01:23:59.118Z,61.21
2023-03-21T01:25:12.163Z,61.62
2023-03-21T01:26:21.400Z,62.13
2023-03-21T01:27:22.952Z,61.49
2023-03-21T01:28:27.100Z,61.88
2023-03-21T01:29:28.627Z,62.06
2023-03-21T01:30:33.982Z,60.89
2023-03-21T01:31:38.519Z,61.27
2023-03-21T01:32:40.414Z,61.04
2023-03-21T01:33:42.676Z,60.90
2023-03-21T01:34:44.266Z,60.70
2023-03-21T01:35:53.445Z,60.75
2023-03-21T01:37:01.902Z,61.42
2023-03-21T01:38:03.489Z,60.63
2023-03-21T01:39:06.733Z,61.37
2023-03-21T01:40:12.819Z,60.70
2023-03-21T01:41:42.016Z,60.72
2023-03-21T01:42:44.784Z,60.79
2023-03-21T01:43:47.566Z,61.13
2023-03-21T01:45:01.818Z,61.18
2023-03-21T01:46:10.638Z,61.56
2023-03-21T01:47:12.966Z,60.41
2023-03-21T01:48:15.698Z,60.69
2023-03-21T01:49:26.121Z,60.67
2023-03-21T01:50:27.888Z,60.05
2023-03-21T01:51:33.354Z,60.42
2023-03-21T01:52:39.166Z,61.05
2023-03-21T01:53:41.991Z,61.39
2023-03-21T01:54:46.944Z,62.58
2023-03-21T01:55:49.797Z,61.92
2023-03-21T01:56:54.903Z,62.19
2023-03-21T01:58:06.632Z,62.15
2023-03-21T01:59:13.401Z,62.65
2023-03-21T02:00:16.869Z,62.69
2023-03-21T02:01:18.819Z,63.73
2023-03-21T02:02:31.515Z,63.78
2023-03-21T02:03:38.394Z,64.21
2023-03-21T02:04:40.981Z,63.88
2023-03-21T02:06:04.002Z,64.67
2023-03-21T02:07:13.840Z,65.40
2023-03-21T02:08:15.628Z,64.88
2023-03-21T02:09:21.872Z,65.10
2023-03-21T02:10:24.218Z,66.28
2023-03-21T02:11:27.045Z,65.78
2023-03-21T02:12:28.752Z,66.16
2023-03-21T02:13:30.804Z,65.68
2023-03-21T02:14:34.761Z,65.49
2023-03-21T02:15:39.040Z,65.90
2023-03-21T02:16:46.542Z,66.63
2023-03-21T02:17:56.400Z,66.31
2023-03-21T02:19:01.108Z,65.94
2023-03-21T02:20:22.247Z,66.28
2023-03-21T02:21:54.484Z,66.14
2023-03-21T02:23:16.587Z,66.77
2023-03-21T02:24:28.705Z,66.68
2023-03-21T02:25:43.370Z,66.57
2023-03-21T02:27:14.204Z,67.56
2023-03-21T02:28:47.364Z,66.32
2023-03-21T02:30:20.058Z,66.47
2023-03-21T02:31:39.837Z,66.15
2023-03-21T02:33:08.514Z,65.96
2023-03-21T02:34:39.666Z,64.86
2023-03-21T02:35:58.650Z,64.61
2023-03-21T02:37:06.869Z,64.41
2023-03-21T02:38:36.168Z,64.54
2023-03-21T02:39:53.545Z,64.34
2023-03-21T02:41:20.148Z,63.30
2023-03-21T02:43:01.158Z,64.44
2023-03-21T02:44:18.671Z,63.23
2023-03-21T02:45:30.555Z,62.66
2023-03-21T02:46:51.081Z,63.47
2023-03-21T02:48:04.539Z,63.90
2023-03-21T02:49:12.876Z,64.27
2023-03-21T02:50:25.024Z,63.45
2023-03-21T02:51:30.639Z,63.98
2023-03-21T02:52:39.608Z,63.29
2023-03-21T02:53:53.251Z,62.53
2023-03-21T02:55:05.162Z,63.32
2023-03-21T02:56:10.688Z,63.11
2023-03-21T02:57:12.932Z,62.14
2023-03-21T02:58:19.000Z,62.66
2023-03-21T02:59:23.435Z,63.22
2023-03-21T03:00:32.613Z,63.30
2023-03-21T03:01:34.255Z,63.69
2023-03-21T03:02:35.955Z,63.57
2023-03-21T03:03:39.471Z,64.15
2023-03-21T03:04:41.245Z,64.16
2023-03-21T03:05:49.570Z,64.15
2023-03-21T03:07:11.932Z,65.61
2023-03-21T03:08:38.540Z,65.11
2023-03-21T03:10:12.447Z,65.63
2023-03-21T03:11:23.242Z,65.71
2023-03-21T03:12:43.560Z,66.06
2023-03-21T03:13:48.057Z,66.32
2023-03-21T03:15:03.217Z,67.37
2023-03-21T03:16:27.145Z,68.31
2023-03-21T03:17:38.891Z,68.24
2023-03-21T03:18:53.950Z,68.85
2023-03-21T03:20:24.927Z,69.08
2023-03-21T03:21:44.026Z,69.36
2023-03-21T03:22:48.336Z,68.92
2023-03-21T03:24:08.966Z,69.38
2023-03-21T03:25:29.767Z,69.80
2023-03-21T03:26:47.795Z,70.52
2023-03-21T03:27:51.323Z,69.90
2023-03-21T03:29:01.921Z,69.92
2023-03-21T03:30:07.861Z,70.36
2023-03-21T03:31:14.957Z,70.76
2023-03-21T03:32:25.682Z,70.73
2023-03-21T03:33:29.185Z,71.34
2023-03-21T03:34:39.596Z,70.74
2023-03-21T03:35:41.264Z,71.15
2023-03-21T03:36:51.618Z,71.35
2023-03-21T03:38:01.047Z,70.78
2023-03-21T03:39:05.579Z,71.13
2023-03-21T03:40:09.341Z,70.84
2023-03-21T03:41:19.588Z,70.98
2023-03-21T03:42:30.381Z,71.52
2023-03-21T03:43:46.910Z,70.79
2023-03-21T03:44:48.721Z,70.96
2023-03-21T03:46:12.183Z,71.53
2023-03-21T03:48:02.042Z,71.97
2023-03-21T03:49:32.734Z,71.86
2023-03-21T03:50:46.089Z,72.03
2023-03-21T03:52:12.194Z,72.65
2023-03-21T03:53:19.318Z,72.67
2023-03-21T03:54:36.518Z,71.96
2023-03-21T03:55:38.859Z,71.25
2023-03-21T03:56:40.966Z,70.64
2023-03-21T03:57:42.605Z,70.24
2023-03-21T03:58:45.998Z,70.30
2023-03-21T03:59:47.830Z,71.13
2023-03-21T04:00:49.498Z,71.05
2023-03-21T04:01:51.610Z,71.00
2023-03-21T04:02:53.341Z,70.99
2023-03-21T04:04:10.382Z,71.17
2023-03-21T04:05:14.198Z,70.88
2023-03-21T04:06:16.738Z,71.20
2023-03-21T04:07:18.900Z,71.46
2023-03-21T04:08:23.296Z,71.24
2023-03-21T04:09:40.843Z,71.50
2023-03-21T04:10:45.018Z,70.27
2023-03-21T04:11:46.793Z,71.04
2023-03-21T04:12:48.441Z,71.68
2023-03-21T04:13:50.466Z,71.09
2023-03-21T04:14:53.300Z,72.19
2023-03-21T04:15:57.108Z,71.20
2023-03-21T04:16:58.644Z,71.53
2023-03-21T04:18:00.502Z,71.07
2023-03-21T04:19:02.367Z,70.65
2023-03-21T04:20:12.109Z,70.48
2023-03-21T04:21:16.818Z,70.10
2023-03-21T04:22:18.400Z,70.49
2023-03-21T04:23:20.158Z,70.88
2023-03-21T04:24:22.214Z,70.62
2023-03-21T04:25:32.815Z,70.33
2023-03-21T04:26:36.023Z,71.94
2023-03-21T04:27:37.810Z,72.87
2023-03-21T04:28:39.844Z,73.48
2023-03-21T04:29:41.741Z,74.51
2023-03-21T04:30:54.934Z,75.02
2023-03-21T04:32:03.382Z,75.85
2023-03-21T04:33:05.417Z,76.92
2023-03-21T04:34:09.830Z,78.11
2023-03-21T04:35:11.639Z,77.88
2023-03-21T04:36:24.997Z,78.78
2023-03-21T04:37:28.011Z,78.71
2023-03-21T04:38:30.853Z,78.76
2023-03-21T04:39:32.990Z,78.89
2023-03-21T04:40:34.620Z,78.40
2023-03-21T04:41:37.372Z,78.66
2023-03-21T04:42:39.367Z,78.35
2023-03-21T04:43:40.966Z,78.67
2023-03-21T04:44:42.496Z,78.79
2023-03-21T04:45:44.602Z,79.15
2023-03-21T04:46:46.168Z,79.32
2023-03-21T04:47:47.946Z,79.23
2023-03-21T04:48:49.772Z,79.81
2023-03-21T04:49:51.765Z,79.53
2023-03-21T04:50:53.304Z,78.72
2023-03-21T04:51:54.826Z,79.26
2023-03-21T04:52:56.378Z,79.25
2023-03-21T04:53:57.957Z,79.15
2023-03-21T04:54:59.546Z,79.79
2023-03-21T04:56:01.077Z,80.40
2023-03-21T04:57:02.736Z,79.65
2023-03-21T04:58:05.627Z,78.85
2023-03-21T04:59:11.395Z,78.36
2023-03-21T05:00:16.528Z,77.99
2023-03-21T05:01:20.731Z,78.02
2023-03-21T05:02:22.743Z,77.54
2023-03-21T05:03:25.081Z,77.58
2023-03-21T05:04:27.824Z,77.44
2023-03-21T05:05:29.429Z,76.89
2023-03-21T05:06:32.144Z,76.58
2023-03-21T05:07:33.774Z,75.74
2023-03-21T05:08:36.056Z,75.27
2023-03-21T05:09:37.764Z,74.76
2023-03-21T05:10:39.513Z,74.44
2023-03-21T05:11:42.092Z,74.10
2023-03-21T05:12:43.709Z,74.57
2023-03-21T05:13:45.229Z,73.80
2023-03-21T05:14:46.757Z,75.49
2023-03-21T05:15:48.280Z,75.31
2023-03-21T05:16:53.511Z,75.03
2023-03-21T05:17:55.796Z,74.96
2023-03-21T05:18:59.327Z,74.65
2023-03-21T05:20:00.926Z,73.98
2023-03-21T05:21:04.269Z,73.70
2023-03-21T05:22:08.348Z,73.35
2023-03-21T05:23:11.771Z,78.89
2023-03-21T05:24:20.345Z,77.45
2023-03-21T05:25:35.170Z,74.90
2023-03-21T05:26:36.851Z,74.10
2023-03-21T05:27:38.841Z,73.99
2023-03-21T05:28:40.329Z,72.60
2023-03-21T05:29:41.858Z,73.07
2023-03-21T05:30:43.712Z,72.49
2023-03-21T05:31:46.237Z,71.42
2023-03-21T05:32:47.846Z,71.91
2023-03-21T05:33:49.482Z,71.62
2023-03-21T05:34:51.037Z,70.83
2023-03-21T05:35:52.641Z,70.60
2023-03-21T05:36:54.932Z,70.39
2023-03-21T05:37:57.543Z,70.15
2023-03-21T05:38:59.044Z,69.96
2023-03-21T05:40:00.681Z,70.18
2023-03-21T05:41:02.297Z,69.99
2023-03-21T05:42:03.959Z,70.30
2023-03-21T05:43:05.705Z,69.78
2023-03-21T05:44:07.397Z,70.74
2023-03-21T05:45:09.294Z,69.28
2023-03-21T05:46:11.881Z,69.43
2023-03-21T05:47:15.048Z,69.64
2023-03-21T05:48:16.668Z,69.88
2023-03-21T05:49:18.193Z,70.71
2023-03-21T05:50:19.980Z,70.48
2023-03-21T05:51:22.105Z,70.38
2023-03-21T05:52:23.762Z,70.24
2023-03-21T05:53:25.352Z,71.19
2023-03-21T05:54:26.907Z,71.50
2023-03-21T05:55:28.451Z,70.87
2023-03-21T05:56:30.270Z,71.69
2023-03-21T05:57:35.069Z,71.93
2023-03-21T05:58:36.706Z,70.47
2023-03-21T05:59:38.303Z,70.86
2023-03-21T06:00:39.957Z,71.74
2023-03-21T06:01:41.493Z,72.39
2023-03-21T06:02:43.556Z,72.13
2023-03-21T06:03:45.590Z,72.18
2023-03-21T06:04:47.186Z,72.01
2023-03-21T06:05:48.705Z,71.96
2023-03-21T06:06:51.956Z,72.86
2023-03-21T06:07:53.521Z,72.91
2023-03-21T06:08:55.116Z,73.40
2023-03-21T06:09:56.918Z,73.24
2023-03-21T06:11:01.022Z,73.51
2023-03-21T06:12:02.865Z,73.47
2023-03-21T06:13:04.818Z,75.01
2023-03-21T06:14:06.450Z,75.71
2023-03-21T06:15:08.969Z,73.25
2023-03-21T06:16:10.672Z,73.57
2023-03-21T06:17:12.376Z,72.54
2023-03-21T06:18:14.149Z,72.38
2023-03-21T06:19:15.796Z,70.38
2023-03-21T06:20:17.622Z,71.44
2023-03-21T06:21:19.150Z,72.69
2023-03-21T06:22:20.668Z,72.67
2023-03-21T06:23:22.335Z,73.47
2023-03-21T06:24:23.880Z,73.05
2023-03-21T06:25:25.631Z,72.76
2023-03-21T06:26:27.397Z,72.57
2023-03-21T06:27:28.917Z,71.88
2023-03-21T06:28:30.733Z,71.86
2023-03-21T06:29:32.360Z,72.34
2023-03-21T06:30:33.898Z,71.31
2023-03-21T06:31:35.696Z,71.16
2023-03-21T06:32:37.245Z,71.03
2023-03-21T06:33:39.140Z,70.95
2023-03-21T06:34:40.876Z,70.36
2023-03-21T06:35:42.772Z,69.71
2023-03-21T06:36:44.909Z,68.52
2023-03-21T06:37:49.300Z,67.25
2023-03-21T06:38:51.063Z,66.93
2023-03-21T06:39:54.602Z,66.56
2023-03-21T06:40:58.146Z,66.00
2023-03-21T06:42:00.620Z,66.31
2023-03-21T06:43:02.177Z,66.17
2023-03-21T06:44:04.257Z,65.49
2023-03-21T06:45:06.685Z,66.12
2023-03-21T06:46:08.374Z,65.32
2023-03-21T06:47:10.206Z,65.53
2023-03-21T06:48:12.474Z,65.19
2023-03-21T06:49:14.089Z,64.04
2023-03-21T06:50:15.745Z,64.57
2023-03-21T06:51:17.585Z,64.11
2023-03-21T06:52:19.156Z,63.25
2023-03-21T06:53:24.407Z,63.07
2023-03-21T06:54:25.968Z,62.80
2023-03-21T06:55:28.936Z,63.02
2023-03-21T06:56:30.718Z,62.73
2023-03-21T06:57:32.309Z,64.83
2023-03-21T06:58:33.876Z,64.61
2023-03-21T06:59:36.210Z,64.92
2023-03-21T07:00:37.781Z,65.40
2023-03-21T07:01:39.733Z,66.20
2023-03-21T07:02:41.844Z,66.05
2023-03-21T07:03:43.994Z,66.21
2023-03-21T07:04:45.735Z,67.22
2023-03-21T07:05:47.701Z,67.38
2023-03-21T07:06:49.625Z,67.72
2023-03-21T07:07:51.188Z,67.24
2023-03-21T07:08:53.836Z,67.59
2023-03-21T07:09:56.133Z,67.50
2023-03-21T07:10:58.001Z,66.56
2023-03-21T07:11:59.563Z,66.60
2023-03-21T07:13:01.382Z,65.77
2023-03-21T07:14:03.471Z,63.74
2023-03-21T07:15:06.978Z,64.74
2023-03-21T07:16:09.131Z,64.87
2023-03-21T07:17:11.174Z,64.50
2023-03-21T07:18:12.767Z,64.87
2023-03-21T07:19:15.755Z,64.79
2023-03-21T07:20:17.589Z,63.81
2023-03-21T07:21:19.148Z,64.23
2023-03-21T07:22:20.864Z,65.14
2023-03-21T07:23:25.729Z,64.55
2023-03-21T07:24:27.533Z,65.06
2023-03-21T07:25:29.500Z,65.38
2023-03-21T07:26:31.073Z,65.17
2023-03-21T07:27:32.797Z,63.79
2023-03-21T07:28:34.517Z,64.29
2023-03-21T07:29:36.041Z,64.64
2023-03-21T07:30:37.807Z,63.31
2023-03-21T07:31:40.001Z,62.33
2023-03-21T07:32:41.668Z,62.21
2023-03-21T07:33:43.250Z,62.28
2023-03-21T07:34:44.772Z,62.88
2023-03-21T07:35:46.576Z,62.83
2023-03-21T07:36:48.111Z,62.26
2023-03-21T07:37:49.743Z,62.77
2023-03-21T07:38:51.401Z,68.57
2023-03-21T07:39:53.322Z,62.77
2023-03-21T07:40:54.855Z,62.45
2023-03-21T07:41:56.597Z,61.33
2023-03-21T07:42:58.286Z,60.71
2023-03-21T07:43:59.870Z,59.65
2023-03-21T07:45:01.449Z,59.51
2023-03-21T07:46:03.037Z,59.24
2023-03-21T07:47:05.710Z,59.09
2023-03-21T07:48:07.341Z,59.23
2023-03-21T07:49:09.042Z,58.76
2023-03-21T07:50:10.767Z,58.81
2023-03-21T07:51:12.412Z,57.98
2023-03-21T07:52:14.173Z,56.49
2023-03-21T07:53:15.701Z,56.33
2023-03-21T07:54:19.369Z,56.70
2023-03-21T07:55:21.015Z,57.10
2023-03-21T07:56:22.605Z,59.74
2023-03-21T07:57:24.154Z,59.67
2023-03-21T07:58:26.878Z,59.74
2023-03-21T07:59:28.514Z,61.03
2023-03-21T08:00:30.751Z,61.40
2023-03-21T08:01:32.610Z,60.07
2023-03-21T08:02:34.262Z,59.77
2023-03-21T08:03:35.992Z,58.04
2023-03-21T08:04:37.574Z,58.12
2023-03-21T08:05:39.735Z,57.25
2023-03-21T08:06:41.539Z,56.33
2023-03-21T08:07:43.082Z,56.17
2023-03-21T08:08:44.643Z,55.70
2023-03-21T08:09:46.310Z,55.24
2023-03-21T08:10:47.986Z,55.05
2023-03-21T08:11:49.538Z,55.65
2023-03-21T08:12:51.311Z,55.90
2023-03-21T08:13:53.960Z,54.22
2023-03-21T08:14:55.618Z,53.67
2023-03-21T08:15:57.187Z,53.89
2023-03-21T08:16:58.807Z,53.39
2023-03-21T08:18:00.685Z,52.83
2023-03-21T08:19:02.248Z,51.72
2023-03-21T08:20:09.062Z,52.05
2023-03-21T08:21:10.665Z,52.14
2023-03-21T08:22:12.404Z,53.85
2023-03-21T08:23:13.925Z,52.07
2023-03-21T08:24:16.260Z,52.17
2023-03-21T08:25:20.256Z,52.14
2023-03-21T08:26:25.099Z,52.41
2023-03-21T08:27:27.113Z,53.30
2023-03-21T08:28:28.701Z,53.81
2023-03-21T08:29:30.330Z,53.93
2023-03-21T08:30:32.017Z,53.59
2023-03-21T08:31:33.685Z,53.56
2023-03-21T08:32:35.260Z,53.57
2023-03-21T08:33:37.578Z,53.10
2023-03-21T08:34:39.133Z,52.29
2023-03-21T08:35:41.399Z,52.23
2023-03-21T08:36:43.786Z,52.61
2023-03-21T08:37:45.359Z,52.74
2023-03-21T08:38:48.491Z,52.87
2023-03-21T08:39:50.229Z,53.46
2023-03-21T08:40:51.881Z,52.73
2023-03-21T08:41:53.409Z,52.63
2023-03-21T08:42:55.303Z,53.50
2023-03-21T08:43:56.872Z,53.22
2023-03-21T08:44:58.432Z,53.68
2023-03-21T08:46:00.005Z,55.81
2023-03-21T08:47:01.556Z,55.80
2023-03-21T08:48:03.198Z,55.87
2023-03-21T08:49:04.797Z,55.17
2023-03-21T08:50:08.597Z,53.88
2023-03-21T08:51:10.334Z,53.43
2023-03-21T08:52:12.485Z,53.58
2023-03-21T08:53:14.278Z,51.44
2023-03-21T08:54:22.450Z,51.04
2023-03-21T08:55:24.058Z,51.63
2023-03-21T08:56:25.680Z,54.51
2023-03-21T08:57:27.225Z,54.43
2023-03-21T08:58:28.840Z,54.16
2023-03-21T08:59:30.584Z,52.94
2023-03-21T09:00:32.350Z,53.49
2023-03-21T09:01:33.992Z,54.76
2023-03-21T09:02:36.080Z,54.14
2023-03-21T09:03:38.840Z,52.32
2023-03-21T09:04:40.908Z,51.57
2023-03-21T09:05:45.528Z,51.64
2023-03-21T09:06:48.850Z,52.06
2023-03-21T09:07:50.440Z,52.13
2023-03-21T09:08:53.434Z,52.39
2023-03-21T09:10:15.113Z,53.32
2023-03-21T09:11:16.888Z,52.45
2023-03-21T09:12:18.577Z,52.42
2023-03-21T09:13:20.979Z,52.56
2023-03-21T09:14:28.432Z,51.99
2023-03-21T09:15:30.504Z,51.36
2023-03-21T09:16:33.188Z,50.18
2023-03-21T09:17:34.943Z,51.02
2023-03-21T09:18:47.098Z,51.12
2023-03-21T09:19:49.776Z,50.66
2023-03-21T09:20:51.921Z,50.22
2023-03-21T09:21:54.193Z,51.05
2023-03-21T09:22:56.230Z,50.24
2023-03-21T09:23:59.943Z,49.04
2023-03-21T09:25:03.202Z,50.08
2023-03-21T09:26:04.978Z,50.19
2023-03-21T09:27:06.542Z,50.25
2023-03-21T09:28:08.603Z,49.70
2023-03-21T09:29:10.558Z,48.17
2023-03-21T09:30:13.890Z,49.45
2023-03-21T09:31:19.214Z,47.16
2023-03-21T09:32:20.829Z,45.83
2023-03-21T09:33:25.754Z,46.62
2023-03-21T09:34:28.377Z,45.25
2023-03-21T09:35:30.148Z,45.28
2023-03-21T09:36:32.280Z,45.30
2023-03-21T09:37:38.336Z,45.67
2023-03-21T09:38:43.103Z,45.90
2023-03-21T09:39:45.225Z,45.56
2023-03-21T09:41:20.499Z,44.80
2023-03-21T09:42:31.617Z,45.02
2023-03-21T09:44:05.734Z,45.03
2023-03-21T09:45:25.992Z,45.49
2023-03-21T09:46:46.015Z,45.90
2023-03-21T09:47:57.130Z,45.60
2023-03-21T09:49:09.914Z,45.06
2023-03-21T09:50:20.101Z,45.66
2023-03-21T09:51:24.217Z,45.38
2023-03-21T09:52:43.870Z,45.29
2023-03-21T09:53:49.368Z,45.54
2023-03-21T09:54:51.087Z,45.97
2023-03-21T09:55:54.556Z,45.19
2023-03-21T09:57:01.085Z,44.32
2023-03-21T09:58:08.153Z,44.27
2023-03-21T09:59:19.636Z,45.07
2023-03-21T10:00:29.582Z,44.85
2023-03-21T10:01:41.939Z,44.44
2023-03-21T10:02:55.027Z,44.97
2023-03-21T10:04:01.005Z,44.61
2023-03-21T10:05:12.038Z,43.52
2023-03-21T10:06:16.512Z,43.63
2023-03-21T10:07:19.987Z,43.83
2023-03-21T10:08:27.747Z,44.16
2023-03-21T10:09:32.637Z,43.90
2023-03-21T10:10:46.007Z,43.41
2023-03-21T10:11:54.363Z,43.58
2023-03-21T10:12:57.079Z,42.95
2023-03-21T10:14:01.312Z,43.03
2023-03-21T10:15:05.399Z,43.20
2023-03-21T10:16:21.149Z,43.73
2023-03-21T10:17:46.692Z,43.45
2023-03-21T10:18:49.807Z,43.04
2023-03-21T10:20:01.354Z,42.55
2023-03-21T10:21:05.236Z,42.61
2023-03-21T10:22:09.165Z,41.99
2023-03-21T10:23:16.837Z,42.88
2023-03-21T10:24:24.113Z,42.41
2023-03-21T10:25:42.262Z,42.85
2023-03-21T10:26:45.572Z,42.03
2023-03-21T10:27:48.581Z,41.68
2023-03-21T10:28:53.364Z,42.42
2023-03-21T10:29:57.653Z,43.46
2023-03-21T10:31:04.459Z,42.45
2023-03-21T10:32:10.036Z,42.15
2023-03-21T10:33:15.978Z,42.15
2023-03-21T10:34:29.150Z,42.70
2023-03-21T10:35:33.805Z,42.16
2023-03-21T10:36:36.144Z,42.29
2023-03-21T10:37:37.916Z,42.26
2023-03-21T10:38:43.577Z,42.82
2023-03-21T10:39:49.034Z,42.05
2023-03-21T10:40:50.904Z,41.88
2023-03-21T10:41:52.437Z,42.01
2023-03-21T10:42:57.903Z,41.45
2023-03-21T10:44:14.910Z,41.54
2023-03-21T10:45:19.539Z,42.28
2023-03-21T10:46:21.765Z,41.47
2023-03-21T10:47:30.499Z,41.61
2023-03-21T10:48:36.888Z,40.53
2023-03-21T10:50:06.194Z,39.64
2023-03-21T10:51:01.461Z,40.72
2023-03-21T10:52:07.549Z,40.05
2023-03-21T10:53:21.352Z,40.59
2023-03-21T10:54:28.814Z,40.82
2023-03-21T10:55:33.449Z,40.68
2023-03-21T10:56:40.832Z,40.57
2023-03-21T10:57:42.524Z,40.73
2023-03-21T10:58:49.774Z,39.82
2023-03-21T11:00:02.452Z,40.15
2023-03-21T11:01:07.920Z,40.78
2023-03-21T11:02:24.452Z,40.98
2023-03-21T11:03:36.453Z,41.28
2023-03-21T11:04:38.865Z,40.68
2023-03-21T11:05:42.457Z,41.37
2023-03-21T11:07:00.005Z,43.31
2023-03-21T11:08:17.422Z,43.00
2023-03-21T11:09:22.074Z,42.82
2023-03-21T11:10:33.402Z,41.81
2023-03-21T11:11:49.608Z,41.06
2023-03-21T11:12:56.622Z,40.76
2023-03-21T11:14:07.136Z,40.70
2023-03-21T11:15:26.304Z,40.82
2023-03-21T11:16:38.476Z,40.26
2023-03-21T11:17:41.912Z,40.20
2023-03-21T11:18:45.649Z,40.49
2023-03-21T11:19:53.215Z,40.44
2023-03-21T11:21:03.616Z,40.49
2023-03-21T11:22:07.366Z,41.03
2023-03-21T11:23:13.013Z,40.70
2023-03-21T11:24:17.334Z,39.79
2023-03-21T11:25:39.364Z,39.63
2023-03-21T11:26:44.516Z,39.31
2023-03-21T11:27:54.974Z,38.66
2023-03-21T11:28:57.573Z,39.68
2023-03-21T11:30:02.141Z,39.41
2023-03-21T11:31:05.734Z,39.95
2023-03-21T11:32:30.967Z,39.62
2023-03-21T11:33:49.277Z,39.84
2023-03-21T11:35:15.497Z,40.59
2023-03-21T11:36:17.013Z,40.54
2023-03-21T11:37:28.516Z,40.55
2023-03-21T11:38:36.118Z,40.46
2023-03-21T11:39:41.054Z,39.93
2023-03-21T11:40:54.054Z,40.35
2023-03-21T11:41:55.947Z,41.48
2023-03-21T11:42:59.848Z,40.44
2023-03-21T11:44:03.102Z,40.66
2023-03-21T11:45:12.236Z,40.03
2023-03-21T11:46:14.590Z,40.05
2023-03-21T11:47:16.277Z,40.67
2023-03-21T11:48:17.976Z,41.05
2023-03-21T11:49:21.156Z,42.84
2023-03-21T11:50:44.845Z,41.43
2023-03-21T11:51:58.620Z,40.46
2023-03-21T11:53:15.068Z,41.03
2023-03-21T11:54:34.795Z,41.36
2023-03-21T11:55:58.965Z,42.23
2023-03-21T11:57:22.760Z,42.14
2023-03-21T11:58:46.494Z,42.19
2023-03-21T12:00:14.412Z,42.04
2023-03-21T12:01:19.157Z,42.08
2023-03-21T12:02:55.197Z,41.78
2023-03-21T12:04:18.593Z,40.09
2023-03-21T12:05:27.376Z,40.42
2023-03-21T12:06:32.321Z,40.37
2023-03-21T12:07:48.508Z,41.49
2023-03-21T12:09:01.693Z,41.23
2023-03-21T12:10:21.480Z,40.53
2023-03-21T12:11:37.412Z,41.59
2023-03-21T12:12:51.650Z,40.50
2023-03-21T12:14:19.494Z,40.23
2023-03-21T12:15:35.915Z,41.09
2023-03-21T12:16:44.268Z,41.98
2023-03-21T12:18:00.996Z,41.10
2023-03-21T12:19:20.210Z,41.42
2023-03-21T12:20:39.809Z,43.18
2023-03-21T12:22:16.278Z,42.08
2023-03-21T12:24:22.428Z,41.39
2023-03-21T12:25:32.855Z,42.75
2023-03-21T12:26:46.560Z,42.05
2023-03-21T12:28:32.134Z,42.31
2023-03-21T12:29:56.927Z,42.07
2023-03-21T12:31:27.301Z,42.50
2023-03-21T12:32:40.347Z,42.29
2023-03-21T12:33:52.205Z,42.44
2023-03-21T12:35:09.404Z,42.17
2023-03-21T12:36:31.044Z,42.36
2023-03-21T12:37:53.815Z,42.92
2023-03-21T12:39:11.495Z,42.59
2023-03-21T12:40:21.971Z,43.37
2023-03-21T12:41:31.194Z,42.64
2023-03-21T12:42:51.046Z,43.25
2023-03-21T12:43:56.421Z,43.34
2023-03-21T12:45:15.369Z,42.49
2023-03-21T12:46:42.286Z,43.09
2023-03-21T12:47:53.405Z,43.20
2023-03-21T12:49:01.298Z,42.77
2023-03-21T12:50:15.476Z,42.53
2023-03-21T12:51:21.225Z,42.45
2023-03-21T12:52:25.679Z,41.97
2023-03-21T12:53:36.101Z,42.23
2023-03-21T12:54:43.631Z,42.47
2023-03-21T12:55:45.936Z,43.00
2023-03-21T12:56:55.334Z,42.98
2023-03-21T12:58:04.417Z,43.33
2023-03-21T12:59:43.586Z,43.41
2023-03-21T13:00:48.981Z,42.93
2023-03-21T13:01:53.698Z,42.97
2023-03-21T13:03:20.960Z,43.59
2023-03-21T13:04:33.394Z,42.49
2023-03-21T13:05:41.184Z,40.43
2023-03-21T13:06:46.611Z,39.74
2023-03-21T13:07:54.290Z,40.31
2023-03-21T13:09:23.366Z,40.19
2023-03-21T13:10:30.681Z,40.11
2023-03-21T13:11:34.007Z,40.44
2023-03-21T13:12:57.340Z,40.57
2023-03-21T13:14:04.611Z,40.93
2023-03-21T13:15:27.894Z,41.02
2023-03-21T13:16:48.309Z,40.76
2023-03-21T13:18:18.310Z,40.78
2023-03-21T13:19:28.730Z,41.25
2023-03-21T13:20:56.260Z,42.67
2023-03-21T13:22:10.456Z,41.24
2023-03-21T13:23:13.723Z,42.79
2023-03-21T13:24:22.189Z,43.53
2023-03-21T13:25:25.931Z,43.44
2023-03-21T13:27:00.735Z,43.12
2023-03-21T13:28:05.488Z,44.04
2023-03-21T13:29:15.298Z,42.85
2023-03-21T13:30:27.120Z,43.27
2023-03-21T13:31:32.038Z,42.42
2023-03-21T13:32:45.485Z,42.57
2023-03-21T13:33:51.455Z,42.37
2023-03-21T13:34:58.858Z,41.97
2023-03-21T13:36:07.161Z,41.29
2023-03-21T13:37:16.740Z,40.44
2023-03-21T13:38:23.245Z,41.46
2023-03-21T13:39:28.742Z,41.48
2023-03-21T13:40:50.417Z,41.76
2023-03-21T13:41:53.270Z,40.02
2023-03-21T13:43:00.533Z,40.20
2023-03-21T13:44:02.012Z,40.09
2023-03-21T13:45:09.949Z,40.03
2023-03-21T13:46:46.962Z,39.96
2023-03-21T13:47:57.880Z,40.31
2023-03-21T13:49:01.421Z,40.60
2023-03-21T13:50:17.648Z,40.10
2023-03-21T13:51:43.087Z,39.19
2023-03-21T13:53:03.406Z,39.50
2023-03-21T13:54:18.980Z,39.73
2023-03-21T13:55:20.720Z,39.73
2023-03-21T13:56:23.388Z,40.28
2023-03-21T13:57:29.404Z,39.62
2023-03-21T13:58:40.633Z,39.51
2023-03-21T13:59:44.198Z,39.41
2023-03-21T14:01:26.188Z,39.53
2023-03-21T14:02:29.735Z,39.15
2023-03-21T14:03:34.343Z,38.58
2023-03-21T14:04:41.914Z,38.65
2023-03-21T14:05:50.011Z,38.56
2023-03-21T14:06:54.376Z,39.82
2023-03-21T14:08:12.631Z,39.10
2023-03-21T14:09:25.828Z,39.88
2023-03-21T14:10:39.864Z,39.61
2023-03-21T14:11:46.794Z,40.40
2023-03-21T14:12:49.203Z,40.03
2023-03-21T14:13:54.150Z,40.09
2023-03-21T14:15:14.112Z,40.23
2023-03-21T14:16:18.767Z,39.69
2023-03-21T14:17:29.482Z,38.87
2023-03-21T14:19:55.252Z,38.61
2023-03-21T14:20:58.613Z,38.45
2023-03-21T14:22:00.287Z,39.02
2023-03-21T14:23:06.757Z,39.01
2023-03-21T14:24:13.761Z,39.38
2023-03-21T14:25:18.570Z,40.37
2023-03-21T14:26:20.508Z,39.85